createdAt,value
2023-01-29T18:01:34.269Z,14.65
2023-01-29T18:04:00.934Z,13.75
2023-01-29T18:06:29.694Z,14.25
2023-01-29T18:08:56.668Z,15.10
2023-01-29T18:11:23.461Z,16.38
2023-01-29T18:13:50.059Z,15.10
2023-01-29T18:16:18.455Z,15.05
2023-01-29T18:18:45.156Z,15.95
2023-01-29T18:21:11.716Z,15.45
2023-01-29T18:23:38.307Z,15.43
2023-01-29T18:26:05.946Z,14.65
2023-01-29T18:28:32.993Z,14.50
2023-01-29T18:31:03.775Z,13.25
2023-01-29T18:33:31.064Z,14.95
2023-01-29T18:35:58.379Z,15.18
2023-01-29T18:38:25.064Z,14.48
2023-01-29T18:40:51.649Z,14.05
2023-01-29T18:43:18.374Z,14.10
2023-01-29T18:45:45.026Z,14.05
2023-01-29T18:48:11.709Z,15.55
2023-01-29T18:50:38.231Z,14.80
2023-01-29T18:53:04.912Z,14.88
2023-01-29T18:55:31.538Z,15.30
2023-01-29T18:58:33.981Z,13.85
2023-01-29T19:00:47.216Z,13.75
2023-01-29T19:03:13.820Z,14.52
2023-01-29T19:05:40.407Z,14.48
2023-01-29T19:08:07.676Z,14.60
2023-01-29T19:10:34.442Z,14.20
2023-01-29T19:13:01.252Z,14.80
2023-01-29T19:15:28.093Z,15.55
2023-01-29T19:17:54.778Z,15.75
2023-01-29T19:20:21.677Z,17.08
2023-01-29T19:22:48.566Z,16.02
2023-01-29T19:25:16.150Z,16.35
2023-01-29T19:27:43.382Z,16.13
2023-01-29T19:30:12.655Z,14.48
2023-01-29T19:32:40.644Z,15.38
2023-01-29T19:35:07.411Z,14.57
2023-01-29T19:37:34.019Z,15.20
2023-01-29T19:40:00.665Z,15.88
2023-01-29T19:42:27.993Z,15.07
2023-01-29T19:44:54.698Z,15.40
2023-01-29T19:47:21.328Z,14.07
2023-01-29T19:49:47.944Z,15.98
2023-01-29T19:52:49.746Z,16.58
2023-01-29T19:55:18.411Z,18.90
2023-01-29T19:57:45.311Z,19.02
2023-01-29T20:00:12.584Z,19.30
2023-01-29T20:02:39.192Z,19.42
2023-01-29T20:05:07.808Z,20.77
2023-01-29T20:07:35.926Z,19.90
2023-01-29T20:10:02.661Z,21.05
2023-01-29T20:12:29.867Z,20.63
2023-01-29T20:14:56.556Z,19.95
2023-01-29T20:17:23.310Z,21.25
2023-01-29T20:19:49.902Z,21.88
2023-01-29T20:22:16.487Z,19.75
2023-01-29T20:24:43.282Z,20.35
2023-01-29T20:27:10.710Z,20.00
2023-01-29T20:29:38.286Z,19.65
2023-01-29T20:32:07.926Z,20.40
2023-01-29T20:34:35.058Z,21.13
2023-01-29T20:37:01.866Z,21.02
2023-01-29T20:39:28.556Z,20.45
2023-01-29T20:41:57.094Z,21.13
2023-01-29T20:44:24.857Z,21.63
2023-01-29T20:46:51.865Z,20.58
2023-01-29T20:49:19.498Z,22.08
2023-01-29T20:51:46.193Z,21.35
2023-01-29T20:54:13.157Z,21.63
2023-01-29T20:56:43.202Z,21.88
2023-01-29T20:59:11.196Z,22.50
2023-01-29T21:01:37.856Z,24.05
2023-01-29T21:04:04.530Z,22.70
2023-01-29T21:06:31.271Z,23.10
2023-01-29T21:08:57.865Z,22.10
2023-01-29T21:11:24.481Z,24.02
2023-01-29T21:13:54.728Z,23.10
2023-01-29T21:16:21.310Z,22.80
2023-01-29T21:18:47.950Z,20.75
2023-01-29T21:21:14.521Z,20.08
2023-01-29T21:23:41.086Z,20.42
2023-01-29T21:26:07.932Z,19.70
2023-01-29T21:28:34.748Z,19.27
2023-01-29T21:31:12.467Z,20.35
2023-01-29T21:33:39.073Z,19.48
2023-01-29T21:36:06.226Z,18.67
2023-01-29T21:38:32.928Z,19.25
2023-01-29T21:41:01.251Z,17.50
2023-01-29T21:43:27.824Z,19.25
2023-01-29T21:45:59.165Z,19.42
2023-01-29T21:48:26.319Z,20.05
2023-01-29T21:50:53.085Z,20.50
2023-01-29T21:53:19.708Z,19.95
2023-01-29T21:55:46.850Z,19.70
2023-01-29T21:58:14.661Z,21.08
2023-01-29T22:00:41.412Z,20.00
2023-01-29T22:03:08.090Z,20.67
2023-01-29T22:05:34.859Z,20.30
2023-01-29T22:08:01.556Z,20.02
2023-01-29T22:10:28.843Z,20.55
2023-01-29T22:12:55.526Z,20.88
2023-01-29T22:15:23.912Z,20.92
2023-01-29T22:17:51.039Z,20.83
2023-01-29T22:20:18.856Z,21.58
2023-01-29T22:22:45.736Z,20.75
2023-01-29T22:25:12.596Z,20.80
2023-01-29T22:27:39.114Z,21.23
2023-01-29T22:30:06.466Z,20.73
2023-01-29T22:32:33.169Z,20.83
2023-01-29T22:34:59.892Z,20.30
2023-01-29T22:37:26.456Z,21.60
2023-01-29T22:39:53.041Z,21.15
2023-01-29T22:42:20.510Z,21.27
2023-01-29T22:44:48.096Z,21.23
2023-01-29T22:47:14.846Z,21.60
2023-01-29T22:49:41.454Z,20.23
2023-01-29T22:52:11.051Z,20.88
2023-01-29T22:54:39.975Z,20.67
2023-01-29T22:57:06.794Z,19.27
2023-01-29T22:59:33.760Z,19.25
2023-01-29T23:02:00.445Z,19.95
2023-01-29T23:04:27.321Z,19.50
2023-01-29T23:06:53.979Z,20.35
2023-01-29T23:09:20.547Z,19.55
2023-01-29T23:11:47.103Z,19.40
2023-01-29T23:14:13.859Z,20.00
2023-01-29T23:16:40.513Z,19.52
2023-01-29T23:19:07.674Z,19.48
2023-01-29T23:21:34.255Z,19.38
2023-01-29T23:24:01.263Z,19.42
2023-01-29T23:26:47.349Z,19.70
2023-01-29T23:29:14.471Z,18.95
2023-01-29T23:31:41.211Z,18.13
2023-01-29T23:34:07.903Z,18.50
2023-01-29T23:36:34.517Z,19.02
2023-01-29T23:39:01.131Z,18.30
2023-01-29T23:41:27.703Z,19.30
2023-01-29T23:43:54.378Z,18.73
2023-01-29T23:46:21.057Z,19.15
2023-01-29T23:48:47.644Z,20.52
2023-01-29T23:51:14.287Z,19.50
2023-01-29T23:53:41.012Z,18.23
2023-01-29T23:56:08.164Z,19.33
2023-01-29T23:58:35.068Z,19.13
